sensor_id;sensor_type;location;lat;lon;timestamp;pressure;altitude;pressure_sealevel;temperature;humidity
9129;BME280;4599;50.906;6.786;2023-04-28T00:01:21;17580.63;;;-142.83;nan
9129;BME280;4599;50.906;6.786;2023-04-28T00:05:22;17588.78;;;-142.83;nan
9129;BME280;4599;50.906;6.786;2023-04-28T00:09:24;17601.06;;;-142.83;nan
9129;BME280;4599;50.906;6.786;2023-04-28T00:13:25;17574.47;;;-142.83;nan
9129;BME280;4599;50.906;6.786;2023-04-28T00:17:29;17537.66;;;-142.83;nan
9129;BME280;4599;50.906;6.786;2023-04-28T00:21:30;17551.97;;;-142.83;nan
9129;BME280;4599;50.906;6.786;2023-04-28T00:25:32;17594.94;;;-142.83;nan
9129;BME280;4599;50.906;6.786;2023-04-28T00:29:34;17596.97;;;-142.83;nan
9129;BME280;4599;50.906;6.786;2023-04-28T00:33:36;17584.69;;;-142.83;nan
9129;BME280;4599;50.906;6.786;2023-04-28T00:37:38;17556.06;;;-142.83;nan
9129;BME280;4599;50.906;6.786;2023-04-28T00:41:39;17558.13;;;-142.83;nan
9129;BME280;4599;50.906;6.786;2023-04-28T00:45:41;17560.16;;;-142.83;nan
9129;BME280;4599;50.906;6.786;2023-04-28T00:49:44;17605.16;;;-142.83;nan
9129;BME280;4599;50.906;6.786;2023-04-28T00:53:46;17574.47;;;-142.83;nan
9129;BME280;4599;50.906;6.786;2023-04-28T00:57:48;17560.16;;;-142.83;nan
9129;BME280;4599;50.906;6.786;2023-04-28T01:01:50;17543.78;;;-142.83;nan
9129;BME280;4599;50.906;6.786;2023-04-28T01:05:53;17566.28;;;-142.83;nan
9129;BME280;4599;50.906;6.786;2023-04-28T01:09:55;17533.56;;;-142.83;nan
9129;BME280;4599;50.906;6.786;2023-04-28T01:13:57;17519.25;;;-142.83;nan
9129;BME280;4599;50.906;6.786;2023-04-28T01:17:58;17500.84;;;-142.83;nan
9129;BME280;4599;50.906;6.786;2023-04-28T01:22:01;17476.28;;;-142.83;nan
9129;BME280;4599;50.906;6.786;2023-04-28T01:26:04;17478.34;;;-142.83;nan
9129;BME280;4599;50.906;6.786;2023-04-28T01:30:07;17435.38;;;-142.83;nan
9129;BME280;4599;50.906;6.786;2023-04-28T01:34:09;17433.34;;;-142.83;nan
9129;BME280;4599;50.906;6.786;2023-04-28T01:38:10;17435.38;;;-142.83;nan
9129;BME280;4599;50.906;6.786;2023-04-28T01:42:13;17423.09;;;-142.83;nan
9129;BME280;4599;50.906;6.786;2023-04-28T01:46:14;17394.47;;;-142.83;nan
9129;BME280;4599;50.906;6.786;2023-04-28T01:50:16;17371.97;;;-142.83;nan
9129;BME280;4599;50.906;6.786;2023-04-28T01:54:18;17349.47;;;-142.83;nan
9129;BME280;4599;50.906;6.786;2023-04-28T01:58:21;17353.56;;;-142.83;nan
9129;BME280;4599;50.906;6.786;2023-04-28T02:02:22;17371.97;;;-142.83;nan
9129;BME280;4599;50.906;6.786;2023-04-28T02:06:24;17298.34;;;-142.83;nan
9129;BME280;4599;50.906;6.786;2023-04-28T02:10:25;17318.78;;;-142.83;nan
9129;BME280;4599;50.906;6.786;2023-04-28T02:14:28;17286.06;;;-142.83;nan
9129;BME280;4599;50.906;6.786;2023-04-28T02:18:29;17326.97;;;-142.83;nan
9129;BME280;4599;50.906;6.786;2023-04-28T02:22:31;17351.53;;;-142.83;nan
9129;BME280;4599;50.906;6.786;2023-04-28T02:26:33;17333.09;;;-142.83;nan
9129;BME280;4599;50.906;6.786;2023-04-28T02:30:35;17339.25;;;-142.83;nan
9129;BME280;4599;50.906;6.786;2023-04-28T02:34:37;17361.75;;;-142.83;nan
9129;BME280;4599;50.906;6.786;2023-04-28T02:38:39;17347.44;;;-142.83;nan
9129;BME280;4599;50.906;6.786;2023-04-28T02:42:41;17343.34;;;-142.83;nan
9129;BME280;4599;50.906;6.786;2023-04-28T02:46:44;17343.34;;;-142.83;nan
9129;BME280;4599;50.906;6.786;2023-04-28T02:50:45;17339.25;;;-142.83;nan
9129;BME280;4599;50.906;6.786;2023-04-28T02:54:47;17367.88;;;-142.83;nan
9129;BME280;4599;50.906;6.786;2023-04-28T02:58:48;17351.53;;;-142.83;nan
9129;BME280;4599;50.906;6.786;2023-04-28T03:02:51;17335.16;;;-142.83;nan
9129;BME280;4599;50.906;6.786;2023-04-28T03:06:53;17326.97;;;-142.83;nan
9129;BME280;4599;50.906;6.786;2023-04-28T03:10:54;17312.66;;;-142.83;nan
9129;BME280;4599;50.906;6.786;2023-04-28T03:14:56;17316.75;;;-142.83;nan
9129;BME280;4599;50.906;6.786;2023-04-28T03:18:59;17316.75;;;-142.83;nan
9129;BME280;4599;50.906;6.786;2023-04-28T03:23:00;17314.69;;;-142.83;nan
9129;BME280;4599;50.906;6.786;2023-04-28T03:27:02;17290.16;;;-142.83;nan
9129;BME280;4599;50.906;6.786;2023-04-28T03:31:04;17320.84;;;-142.83;nan
9129;BME280;4599;50.906;6.786;2023-04-28T03:35:08;17318.78;;;-142.83;nan
9129;BME280;4599;50.906;6.786;2023-04-28T03:39:09;17277.88;;;-142.83;nan
9129;BME280;4599;50.906;6.786;2023-04-28T03:43:11;17286.06;;;-142.83;nan
9129;BME280;4599;50.906;6.786;2023-04-28T03:47:12;17290.16;;;-142.83;nan
9129;BME280;4599;50.906;6.786;2023-04-28T03:51:15;17277.88;;;-142.83;nan
9129;BME280;4599;50.906;6.786;2023-04-28T03:55:17;17265.63;;;-142.83;nan
9129;BME280;4599;50.906;6.786;2023-04-28T03:59:18;17275.84;;;-142.83;nan
9129;BME280;4599;50.906;6.786;2023-04-28T04:03:20;17286.06;;;-142.83;nan
9129;BME280;4599;50.906;6.786;2023-04-28T04:07:23;17269.69;;;-142.83;nan
9129;BME280;4599;50.906;6.786;2023-04-28T04:11:24;17224.72;;;-142.83;nan
9129;BME280;4599;50.906;6.786;2023-04-28T04:15:26;17224.72;;;-142.83;nan
9129;BME280;4599;50.906;6.786;2023-04-28T04:19:27;17239.03;;;-142.83;nan
9129;BME280;4599;50.906;6.786;2023-04-28T04:23:30;17257.44;;;-142.83;nan
9129;BME280;4599;50.906;6.786;2023-04-28T04:27:32;17212.44;;;-142.83;nan
9129;BME280;4599;50.906;6.786;2023-04-28T04:31:33;17224.72;;;-142.83;nan
9129;BME280;4599;50.906;6.786;2023-04-28T04:35:35;17265.63;;;-142.83;nan
9129;BME280;4599;50.906;6.786;2023-04-28T04:39:38;17261.53;;;-142.83;nan
9129;BME280;4599;50.906;6.786;2023-04-28T04:43:39;17239.03;;;-142.83;nan
9129;BME280;4599;50.906;6.786;2023-04-28T04:47:41;17263.56;;;-142.83;nan
9129;BME280;4599;50.906;6.786;2023-04-28T04:51:43;17212.44;;;-142.83;nan
9129;BME280;4599;50.906;6.786;2023-04-28T04:55:45;17220.63;;;-142.83;nan
9129;BME280;4599;50.906;6.786;2023-04-28T04:59:47;17269.69;;;-142.83;nan
9129;BME280;4599;50.906;6.786;2023-04-28T05:03:49;17253.34;;;-142.83;nan
9129;BME280;4599;50.906;6.786;2023-04-28T05:07:50;17241.06;;;-142.83;nan
9129;BME280;4599;50.906;6.786;2023-04-28T05:11:53;17257.44;;;-142.83;nan
9129;BME280;4599;50.906;6.786;2023-04-28T05:15:54;17249.25;;;-142.83;nan
9129;BME280;4599;50.906;6.786;2023-04-28T05:19:56;17277.88;;;-142.83;nan
9129;BME280;4599;50.906;6.786;2023-04-28T05:23:58;17265.63;;;-142.83;nan
9129;BME280;4599;50.906;6.786;2023-04-28T05:28:00;17249.25;;;-142.83;nan
9129;BME280;4599;50.906;6.786;2023-04-28T05:32:03;17212.44;;;-142.83;nan
9129;BME280;4599;50.906;6.786;2023-04-28T05:36:05;17214.47;;;-142.83;nan
9129;BME280;4599;50.906;6.786;2023-04-28T05:40:08;17210.38;;;-142.83;nan
9129;BME280;4599;50.906;6.786;2023-04-28T05:44:11;17228.78;;;-142.83;nan
9129;BME280;4599;50.906;6.786;2023-04-28T05:48:13;17187.88;;;-142.83;nan
9129;BME280;4599;50.906;6.786;2023-04-28T05:52:14;17245.16;;;-142.83;nan
9129;BME280;4599;50.906;6.786;2023-04-28T05:56:16;17249.25;;;-142.83;nan
9129;BME280;4599;50.906;6.786;2023-04-28T06:00:19;17259.47;;;-142.83;nan
9129;BME280;4599;50.906;6.786;2023-04-28T06:04:20;17243.13;;;-142.83;nan
9129;BME280;4599;50.906;6.786;2023-04-28T06:08:23;17284.03;;;-142.83;nan
9129;BME280;4599;50.906;6.786;2023-04-28T06:12:24;17261.53;;;-142.83;nan
9129;BME280;4599;50.906;6.786;2023-04-28T06:16:27;17230.84;;;-142.83;nan
9129;BME280;4599;50.906;6.786;2023-04-28T06:20:29;17224.72;;;-142.83;nan
9129;BME280;4599;50.906;6.786;2023-04-28T06:24:30;17196.06;;;-142.83;nan
9129;BME280;4599;50.906;6.786;2023-04-28T06:28:31;17249.25;;;-142.83;nan
9129;BME280;4599;50.906;6.786;2023-04-28T06:32:34;17224.72;;;-142.83;nan
9129;BME280;4599;50.906;6.786;2023-04-28T06:36:36;17224.72;;;-142.83;nan
9129;BME280;4599;50.906;6.786;2023-04-28T06:40:37;17243.13;;;-142.83;nan
9129;BME280;4599;50.906;6.786;2023-04-28T06:44:39;17277.88;;;-142.83;nan
9129;BME280;4599;50.906;6.786;2023-04-28T06:48:42;17271.75;;;-142.83;nan
9129;BME280;4599;50.906;6.786;2023-04-28T06:52:43;17314.69;;;-142.83;nan
9129;BME280;4599;50.906;6.786;2023-04-28T06:56:45;17298.34;;;-142.83;nan
9129;BME280;4599;50.906;6.786;2023-04-28T07:00:46;17286.06;;;-142.83;nan
9129;BME280;4599;50.906;6.786;2023-04-28T07:04:49;17310.63;;;-142.83;nan
9129;BME280;4599;50.906;6.786;2023-04-28T07:08:51;17312.66;;;-142.83;nan
9129;BME280;4599;50.906;6.786;2023-04-28T07:12:52;17316.75;;;-142.83;nan
9129;BME280;4599;50.906;6.786;2023-04-28T07:16:54;17343.34;;;-142.83;nan
9129;BME280;4599;50.906;6.786;2023-04-28T07:20:57;17341.28;;;-142.83;nan
9129;BME280;4599;50.906;6.786;2023-04-28T07:24:58;17331.06;;;-142.83;nan
9129;BME280;4599;50.906;6.786;2023-04-28T07:29:00;17271.75;;;-142.83;nan
9129;BME280;4599;50.906;6.786;2023-04-28T07:33:01;17337.19;;;-142.83;nan
9129;BME280;4599;50.906;6.786;2023-04-28T07:37:04;17367.88;;;-142.83;nan
9129;BME280;4599;50.906;6.786;2023-04-28T07:41:06;17414.94;;;-142.83;nan
9129;BME280;4599;50.906;6.786;2023-04-28T07:45:10;17421.06;;;-142.83;nan
9129;BME280;4599;50.906;6.786;2023-04-28T07:49:12;17433.34;;;-142.83;nan
9129;BME280;4599;50.906;6.786;2023-04-28T07:53:15;17513.09;;;-142.83;nan
9129;BME280;4599;50.906;6.786;2023-04-28T07:57:16;17670.63;;;-142.83;nan
9129;BME280;4599;50.906;6.786;2023-04-28T08:01:18;17670.63;;;-142.83;nan
9129;BME280;4599;50.906;6.786;2023-04-28T08:05:20;17756.53;;;-142.83;nan
9129;BME280;4599;50.906;6.786;2023-04-28T08:09:23;17590.84;;;-142.83;nan
9129;BME280;4599;50.906;6.786;2023-04-28T08:13:24;17639.94;;;-142.83;nan
9129;BME280;4599;50.906;6.786;2023-04-28T08:17:26;17611.28;;;-142.83;nan
9129;BME280;4599;50.906;6.786;2023-04-28T08:21:27;17605.16;;;-142.83;nan
9129;BME280;4599;50.906;6.786;2023-04-28T08:25:30;17633.78;;;-142.83;nan
9129;BME280;4599;50.906;6.786;2023-04-28T08:29:32;17605.16;;;-142.83;nan
9129;BME280;4599;50.906;6.786;2023-04-28T08:33:33;17572.44;;;-142.83;nan
9129;BME280;4599;50.906;6.786;2023-04-28T08:37:35;17556.06;;;-142.83;nan
9129;BME280;4599;50.906;6.786;2023-04-28T08:41:38;17539.69;;;-142.83;nan
9129;BME280;4599;50.906;6.786;2023-04-28T08:45:41;17523.34;;;-142.83;nan
9129;BME280;4599;50.906;6.786;2023-04-28T08:49:43;17519.25;;;-142.83;nan
9129;BME280;4599;50.906;6.786;2023-04-28T08:53:49;17515.16;;;-142.83;nan
9129;BME280;4599;50.906;6.786;2023-04-28T08:58:13;17521.28;;;-142.83;nan
9129;BME280;4599;50.906;6.786;2023-04-28T09:02:15;17490.59;;;-142.83;nan
9129;BME280;4599;50.906;6.786;2023-04-28T09:06:16;17457.88;;;-142.83;nan
9129;BME280;4599;50.906;6.786;2023-04-28T09:10:19;17449.69;;;-142.83;nan
9129;BME280;4599;50.906;6.786;2023-04-28T09:14:23;17441.53;;;-142.83;nan
9129;BME280;4599;50.906;6.786;2023-04-28T09:18:24;17459.94;;;-142.83;nan
9129;BME280;4599;50.906;6.786;2023-04-28T09:22:27;17433.34;;;-142.83;nan
9129;BME280;4599;50.906;6.786;2023-04-28T09:26:47;17400.59;;;-142.83;nan
9129;BME280;4599;50.906;6.786;2023-04-28T09:30:50;17445.59;;;-142.83;nan
9129;BME280;4599;50.906;6.786;2023-04-28T09:34:53;17449.69;;;-142.83;nan
9129;BME280;4599;50.906;6.786;2023-04-28T09:38:56;17451.75;;;-142.83;nan
9129;BME280;4599;50.906;6.786;2023-04-28T09:42:58;17457.88;;;-142.83;nan
9129;BME280;4599;50.906;6.786;2023-04-28T09:47:19;17431.28;;;-142.83;nan
9129;BME280;4599;50.906;6.786;2023-04-28T09:51:20;17455.84;;;-142.83;nan
9129;BME280;4599;50.906;6.786;2023-04-28T09:55:23;17423.09;;;-142.83;nan
9129;BME280;4599;50.906;6.786;2023-04-28T09:59:26;17410.84;;;-142.83;nan
9129;BME280;4599;50.906;6.786;2023-04-28T10:03:30;17404.69;;;-142.83;nan
9129;BME280;4599;50.906;6.786;2023-04-28T10:07:32;17416.97;;;-142.83;nan
9129;BME280;4599;50.906;6.786;2023-04-28T10:11:33;17421.06;;;-142.83;nan
9129;BME280;4599;50.906;6.786;2023-04-28T10:15:35;17439.47;;;-142.83;nan
9129;BME280;4599;50.906;6.786;2023-04-28T10:19:39;17472.19;;;-142.83;nan
9129;BME280;4599;50.906;6.786;2023-04-28T10:24:03;17574.47;;;-142.83;nan
9129;BME280;4599;50.906;6.786;2023-04-28T10:28:09;17592.88;;;-142.83;nan
9129;BME280;4599;50.906;6.786;2023-04-28T10:32:15;17736.06;;;-142.83;nan
9129;BME280;4599;50.906;6.786;2023-04-28T10:36:47;17656.28;;;-142.83;nan
9129;BME280;4599;50.906;6.786;2023-04-28T10:40:50;17621.53;;;-142.83;nan
9129;BME280;4599;50.906;6.786;2023-04-28T10:44:51;17625.63;;;-142.83;nan
9129;BME280;4599;50.906;6.786;2023-04-28T10:48:56;17660.38;;;-142.83;nan
9129;BME280;4599;50.906;6.786;2023-04-28T10:52:59;17672.66;;;-142.83;nan
9129;BME280;4599;50.906;6.786;2023-04-28T10:57:20;17948.81;;;-142.83;nan
9129;BME280;4599;50.906;6.786;2023-04-28T11:01:26;18028.59;;;-142.83;nan
9129;BME280;4599;50.906;6.786;2023-04-28T11:05:28;18051.13;;;-142.83;nan
9129;BME280;4599;50.906;6.786;2023-04-28T11:09:50;17901.78;;;-142.83;nan
9129;BME280;4599;50.906;6.786;2023-04-28T11:13:54;17905.88;;;-142.83;nan
9129;BME280;4599;50.906;6.786;2023-04-28T11:17:56;17877.22;;;-142.83;nan
9129;BME280;4599;50.906;6.786;2023-04-28T11:22:01;17928.38;;;-142.83;nan
9129;BME280;4599;50.906;6.786;2023-04-28T11:26:04;18069.53;;;-142.83;nan
9129;BME280;4599;50.906;6.786;2023-04-28T11:30:18;18002.00;;;-142.83;nan
9129;BME280;4599;50.906;6.786;2023-04-28T11:34:20;17979.50;;;-142.83;nan
9129;BME280;4599;50.906;6.786;2023-04-28T11:38:22;18038.84;;;-142.83;nan
9129;BME280;4599;50.906;6.786;2023-04-28T11:42:25;18165.69;;;-142.83;nan
9129;BME280;4599;50.906;6.786;2023-04-28T11:46:26;18038.84;;;-142.83;nan
9129;BME280;4599;50.906;6.786;2023-04-28T11:50:34;18126.81;;;-142.83;nan
9129;BME280;4599;50.906;6.786;2023-04-28T11:54:36;18439.84;;;-142.83;nan
9129;BME280;4599;50.906;6.786;2023-04-28T11:58:39;18619.88;;;-142.83;nan
9129;BME280;4599;50.906;6.786;2023-04-28T12:02:41;18472.56;;;-142.83;nan
9129;BME280;4599;50.906;6.786;2023-04-28T12:06:43;18533.94;;;-142.83;nan
9129;BME280;4599;50.906;6.786;2023-04-28T12:11:06;18372.31;;;-142.83;nan
9129;BME280;4599;50.906;6.786;2023-04-28T12:15:09;18701.72;;;-142.83;nan
9129;BME280;4599;50.906;6.786;2023-04-28T12:19:11;18750.84;;;-142.83;nan
9129;BME280;4599;50.906;6.786;2023-04-28T12:23:13;18822.44;;;-142.83;nan
9129;BME280;4599;50.906;6.786;2023-04-28T12:27:16;18789.72;;;-142.83;nan
9129;BME280;4599;50.906;6.786;2023-04-28T12:31:19;18906.34;;;-142.83;nan
9129;BME280;4599;50.906;6.786;2023-04-28T12:35:20;18855.19;;;-142.83;nan
9129;BME280;4599;50.906;6.786;2023-04-28T12:39:22;18844.97;;;-142.83;nan
9129;BME280;4599;50.906;6.786;2023-04-28T12:43:24;18889.97;;;-142.83;nan
9129;BME280;4599;50.906;6.786;2023-04-28T12:47:27;18777.44;;;-142.83;nan
9129;BME280;4599;50.906;6.786;2023-04-28T12:51:30;18847.00;;;-142.83;nan
9129;BME280;4599;50.906;6.786;2023-04-28T12:55:31;18857.25;;;-142.83;nan
9129;BME280;4599;50.906;6.786;2023-04-28T12:59:33;18977.97;;;-142.83;nan
9129;BME280;4599;50.906;6.786;2023-04-28T13:03:36;18945.22;;;-142.83;nan
9129;BME280;4599;50.906;6.786;2023-04-28T13:07:39;18998.44;;;-142.83;nan
9129;BME280;4599;50.906;6.786;2023-04-28T13:11:41;18875.66;;;-142.83;nan
9129;BME280;4599;50.906;6.786;2023-04-28T13:15:43;18867.47;;;-142.83;nan
9129;BME280;4599;50.906;6.786;2023-04-28T13:19:46;18795.84;;;-142.83;nan
9129;BME280;4599;50.906;6.786;2023-04-28T13:23:48;18724.22;;;-142.83;nan
9129;BME280;4599;50.906;6.786;2023-04-28T13:27:49;18726.28;;;-142.83;nan
9129;BME280;4599;50.906;6.786;2023-04-28T13:31:51;18728.31;;;-142.83;nan
9129;BME280;4599;50.906;6.786;2023-04-28T13:35:53;18746.75;;;-142.83;nan
9129;BME280;4599;50.906;6.786;2023-04-28T13:39:55;18740.59;;;-142.83;nan
9129;BME280;4599;50.906;6.786;2023-04-28T13:43:56;18748.78;;;-142.83;nan
9129;BME280;4599;50.906;6.786;2023-04-28T13:47:58;18691.50;;;-142.83;nan
9129;BME280;4599;50.906;6.786;2023-04-28T13:52:01;18640.34;;;-142.83;nan
9129;BME280;4599;50.906;6.786;2023-04-28T13:56:03;18707.88;;;-142.83;nan
9129;BME280;4599;50.906;6.786;2023-04-28T14:00:06;18615.78;;;-142.83;nan
9129;BME280;4599;50.906;6.786;2023-04-28T14:04:08;18648.53;;;-142.83;nan
9129;BME280;4599;50.906;6.786;2023-04-28T14:08:11;18714.00;;;-142.83;nan
9129;BME280;4599;50.906;6.786;2023-04-28T14:12:12;18583.06;;;-142.83;nan
9129;BME280;4599;50.906;6.786;2023-04-28T14:16:14;18484.84;;;-142.83;nan
9129;BME280;4599;50.906;6.786;2023-04-28T14:20:15;18523.72;;;-142.83;nan
9129;BME280;4599;50.906;6.786;2023-04-28T14:24:18;18597.38;;;-142.83;nan
9129;BME280;4599;50.906;6.786;2023-04-28T14:28:20;18533.94;;;-142.83;nan
9129;BME280;4599;50.906;6.786;2023-04-28T14:32:21;18411.19;;;-142.83;nan
9129;BME280;4599;50.906;6.786;2023-04-28T14:36:23;18368.22;;;-142.83;nan
9129;BME280;4599;50.906;6.786;2023-04-28T14:40:26;18229.09;;;-142.83;nan
9129;BME280;4599;50.906;6.786;2023-04-28T14:44:27;18335.50;;;-142.83;nan
9129;BME280;4599;50.906;6.786;2023-04-28T14:48:30;18243.41;;;-142.83;nan
9129;BME280;4599;50.906;6.786;2023-04-28T14:52:31;18202.50;;;-142.83;nan
9129;BME280;4599;50.906;6.786;2023-04-28T14:56:34;18272.06;;;-142.83;nan
9129;BME280;4599;50.906;6.786;2023-04-28T15:00:36;18251.59;;;-142.83;nan
9129;BME280;4599;50.906;6.786;2023-04-28T15:04:38;18161.59;;;-142.83;nan
9129;BME280;4599;50.906;6.786;2023-04-28T15:08:39;18171.81;;;-142.83;nan
9129;BME280;4599;50.906;6.786;2023-04-28T15:12:42;18177.97;;;-142.83;nan
9129;BME280;4599;50.906;6.786;2023-04-28T15:16:44;18200.47;;;-142.83;nan
9129;BME280;4599;50.906;6.786;2023-04-28T15:20:46;18149.31;;;-142.83;nan
9129;BME280;4599;50.906;6.786;2023-04-28T15:24:48;18026.56;;;-142.83;nan
9129;BME280;4599;50.906;6.786;2023-04-28T15:28:51;18120.66;;;-142.83;nan
9129;BME280;4599;50.906;6.786;2023-04-28T15:32:52;18002.00;;;-142.83;nan
9129;BME280;4599;50.906;6.786;2023-04-28T15:36:54;18051.13;;;-142.83;nan
9129;BME280;4599;50.906;6.786;2023-04-28T15:40:56;17989.75;;;-142.83;nan
9129;BME280;4599;50.906;6.786;2023-04-28T15:44:58;17961.09;;;-142.83;nan
9129;BME280;4599;50.906;6.786;2023-04-28T15:49:00;17909.97;;;-142.83;nan
9129;BME280;4599;50.906;6.786;2023-04-28T15:53:02;17858.81;;;-142.83;nan
9129;BME280;4599;50.906;6.786;2023-04-28T15:57:03;17889.50;;;-142.83;nan
9129;BME280;4599;50.906;6.786;2023-04-28T16:01:06;17836.31;;;-142.83;nan
9129;BME280;4599;50.906;6.786;2023-04-28T16:05:08;17801.53;;;-142.83;nan
9129;BME280;4599;50.906;6.786;2023-04-28T16:09:09;17824.03;;;-142.83;nan
9129;BME280;4599;50.906;6.786;2023-04-28T16:13:11;17811.75;;;-142.83;nan
9129;BME280;4599;50.906;6.786;2023-04-28T16:17:14;17734.03;;;-142.83;nan
9129;BME280;4599;50.906;6.786;2023-04-28T16:21:15;17768.81;;;-142.83;nan
9129;BME280;4599;50.906;6.786;2023-04-28T16:25:17;17756.53;;;-142.83;nan
9129;BME280;4599;50.906;6.786;2023-04-28T16:29:18;17760.63;;;-142.83;nan
9129;BME280;4599;50.906;6.786;2023-04-28T16:33:21;17742.22;;;-142.83;nan
9129;BME280;4599;50.906;6.786;2023-04-28T16:37:23;17723.81;;;-142.83;nan
9129;BME280;4599;50.906;6.786;2023-04-28T16:41:24;17707.44;;;-142.83;nan
9129;BME280;4599;50.906;6.786;2023-04-28T16:45:26;17662.44;;;-142.83;nan
9129;BME280;4599;50.906;6.786;2023-04-28T16:49:29;17725.84;;;-142.83;nan
9129;BME280;4599;50.906;6.786;2023-04-28T16:53:30;17725.84;;;-142.83;nan
9129;BME280;4599;50.906;6.786;2023-04-28T16:57:32;17697.22;;;-142.83;nan
9129;BME280;4599;50.906;6.786;2023-04-28T17:01:33;17727.91;;;-142.83;nan
9129;BME280;4599;50.906;6.786;2023-04-28T17:05:36;17672.66;;;-142.83;nan
9129;BME280;4599;50.906;6.786;2023-04-28T17:09:38;17727.91;;;-142.83;nan
9129;BME280;4599;50.906;6.786;2023-04-28T17:13:39;17727.91;;;-142.83;nan
9129;BME280;4599;50.906;6.786;2023-04-28T17:17:41;17625.63;;;-142.83;nan
9129;BME280;4599;50.906;6.786;2023-04-28T17:21:45;17664.47;;;-142.83;nan
9129;BME280;4599;50.906;6.786;2023-04-28T17:25:46;17678.81;;;-142.83;nan
9129;BME280;4599;50.906;6.786;2023-04-28T17:29:47;17654.25;;;-142.83;nan
9129;BME280;4599;50.906;6.786;2023-04-28T17:33:49;17674.72;;;-142.83;nan
9129;BME280;4599;50.906;6.786;2023-04-28T17:37:53;17639.94;;;-142.83;nan
9129;BME280;4599;50.906;6.786;2023-04-28T17:41:54;17609.25;;;-142.83;nan
9129;BME280;4599;50.906;6.786;2023-04-28T17:45:56;17613.34;;;-142.83;nan
9129;BME280;4599;50.906;6.786;2023-04-28T17:49:57;17697.22;;;-142.83;nan
9129;BME280;4599;50.906;6.786;2023-04-28T17:54:00;17662.44;;;-142.83;nan
9129;BME280;4599;50.906;6.786;2023-04-28T17:58:02;17658.34;;;-142.83;nan
9129;BME280;4599;50.906;6.786;2023-04-28T18:02:03;17603.13;;;-142.83;nan
9129;BME280;4599;50.906;6.786;2023-04-28T18:06:05;17631.75;;;-142.83;nan
9129;BME280;4599;50.906;6.786;2023-04-28T18:10:08;17603.13;;;-142.83;nan
9129;BME280;4599;50.906;6.786;2023-04-28T18:14:10;17662.44;;;-142.83;nan
9129;BME280;4599;50.906;6.786;2023-04-28T18:18:11;17662.44;;;-142.83;nan
9129;BME280;4599;50.906;6.786;2023-04-28T18:22:13;17666.53;;;-142.83;nan
9129;BME280;4599;50.906;6.786;2023-04-28T18:26:16;17650.16;;;-142.83;nan
9129;BME280;4599;50.906;6.786;2023-04-28T18:30:17;17627.66;;;-142.83;nan
9129;BME280;4599;50.906;6.786;2023-04-28T18:34:19;17623.56;;;-142.83;nan
9129;BME280;4599;50.906;6.786;2023-04-28T18:38:20;17621.53;;;-142.83;nan
9129;BME280;4599;50.906;6.786;2023-04-28T18:42:23;17625.63;;;-142.83;nan
9129;BME280;4599;50.906;6.786;2023-04-28T18:46:25;17619.47;;;-142.83;nan
9129;BME280;4599;50.906;6.786;2023-04-28T18:50:26;17627.66;;;-142.83;nan
9129;BME280;4599;50.906;6.786;2023-04-28T18:54:28;17603.13;;;-142.83;nan
9129;BME280;4599;50.906;6.786;2023-04-28T18:58:33;17590.84;;;-142.83;nan
9129;BME280;4599;50.906;6.786;2023-04-28T19:02:35;17615.38;;;-142.83;nan
9129;BME280;4599;50.906;6.786;2023-04-28T19:06:37;17596.97;;;-142.83;nan
9129;BME280;4599;50.906;6.786;2023-04-28T19:10:38;17615.38;;;-142.83;nan
9129;BME280;4599;50.906;6.786;2023-04-28T19:14:41;17592.88;;;-142.83;nan
9129;BME280;4599;50.906;6.786;2023-04-28T19:18:43;17566.28;;;-142.83;nan
9129;BME280;4599;50.906;6.786;2023-04-28T19:22:44;17549.94;;;-142.83;nan
9129;BME280;4599;50.906;6.786;2023-04-28T19:26:46;17588.78;;;-142.83;nan
9129;BME280;4599;50.906;6.786;2023-04-28T19:30:49;17539.69;;;-142.83;nan
9129;BME280;4599;50.906;6.786;2023-04-28T19:34:50;17635.84;;;-142.83;nan
9129;BME280;4599;50.906;6.786;2023-04-28T19:38:52;17648.13;;;-142.83;nan
9129;BME280;4599;50.906;6.786;2023-04-28T19:42:53;17590.84;;;-142.83;nan
9129;BME280;4599;50.906;6.786;2023-04-28T19:46:56;17603.13;;;-142.83;nan
9129;BME280;4599;50.906;6.786;2023-04-28T19:50:58;17609.25;;;-142.83;nan
9129;BME280;4599;50.906;6.786;2023-04-28T19:54:59;17568.34;;;-142.83;nan
9129;BME280;4599;50.906;6.786;2023-04-28T19:59:01;17580.63;;;-142.83;nan
9129;BME280;4599;50.906;6.786;2023-04-28T20:03:04;17601.06;;;-142.83;nan
9129;BME280;4599;50.906;6.786;2023-04-28T20:07:06;17568.34;;;-142.83;nan
9129;BME280;4599;50.906;6.786;2023-04-28T20:11:07;17572.44;;;-142.83;nan
9129;BME280;4599;50.906;6.786;2023-04-28T20:15:09;17515.16;;;-142.83;nan
9129;BME280;4599;50.906;6.786;2023-04-28T20:19:12;17476.28;;;-142.83;nan
9129;BME280;4599;50.906;6.786;2023-04-28T20:23:13;17543.78;;;-142.83;nan
9129;BME280;4599;50.906;6.786;2023-04-28T20:27:15;17515.16;;;-142.83;nan
9129;BME280;4599;50.906;6.786;2023-04-28T20:31:16;17535.59;;;-142.83;nan
9129;BME280;4599;50.906;6.786;2023-04-28T20:35:19;17527.44;;;-142.83;nan
9129;BME280;4599;50.906;6.786;2023-04-28T20:39:21;17470.16;;;-142.83;nan
9129;BME280;4599;50.906;6.786;2023-04-28T20:43:22;17433.34;;;-142.83;nan
9129;BME280;4599;50.906;6.786;2023-04-28T20:47:24;17429.25;;;-142.83;nan
9129;BME280;4599;50.906;6.786;2023-04-28T20:51:27;17402.66;;;-142.83;nan
9129;BME280;4599;50.906;6.786;2023-04-28T20:55:28;17404.69;;;-142.83;nan
9129;BME280;4599;50.906;6.786;2023-04-28T20:59:30;17361.75;;;-142.83;nan
9129;BME280;4599;50.906;6.786;2023-04-28T21:03:33;17367.88;;;-142.83;nan
9129;BME280;4599;50.906;6.786;2023-04-28T21:07:36;17367.88;;;-142.83;nan
9129;BME280;4599;50.906;6.786;2023-04-28T21:11:37;17361.75;;;-142.83;nan
9129;BME280;4599;50.906;6.786;2023-04-28T21:15:40;17378.09;;;-142.83;nan
9129;BME280;4599;50.906;6.786;2023-04-28T21:19:42;17365.84;;;-142.83;nan
9129;BME280;4599;50.906;6.786;2023-04-28T21:23:45;17384.25;;;-142.83;nan
9129;BME280;4599;50.906;6.786;2023-04-28T21:27:46;17347.44;;;-142.83;nan
9129;BME280;4599;50.906;6.786;2023-04-28T21:31:48;17335.16;;;-142.83;nan
9129;BME280;4599;50.906;6.786;2023-04-28T21:35:49;17371.97;;;-142.83;nan
9129;BME280;4599;50.906;6.786;2023-04-28T21:39:54;17359.69;;;-142.83;nan
9129;BME280;4599;50.906;6.786;2023-04-28T21:43:56;17331.06;;;-142.83;nan
9129;BME280;4599;50.906;6.786;2023-04-28T21:47:58;17322.88;;;-142.83;nan
9129;BME280;4599;50.906;6.786;2023-04-28T21:51:59;17347.44;;;-142.83;nan
9129;BME280;4599;50.906;6.786;2023-04-28T21:56:02;17331.06;;;-142.83;nan
9129;BME280;4599;50.906;6.786;2023-04-28T22:00:06;17304.47;;;-142.83;nan